createdAt,value
2022-09-03T00:02:40.055Z,17.80
2022-09-03T00:06:52.448Z,17.80
2022-09-03T00:11:11.976Z,17.70
2022-09-03T00:15:22.091Z,17.90
2022-09-03T00:19:32.450Z,17.70
2022-09-03T00:23:41.998Z,17.70
2022-09-03T00:27:53.822Z,17.60
2022-09-03T00:32:08.081Z,17.60
2022-09-03T00:36:18.788Z,17.50
2022-09-03T00:41:02.470Z,17.60
2022-09-03T00:45:39.082Z,17.40
2022-09-03T00:50:07.243Z,17.30
2022-09-03T00:54:40.501Z,17.30
2022-09-03T00:59:23.767Z,17.20
2022-09-03T01:03:51.281Z,17.10
2022-09-03T01:08:16.682Z,17.10
2022-09-03T01:12:50.863Z,17.10
2022-09-03T01:17:39.492Z,17.00
2022-09-03T01:22:10.274Z,17.00
2022-09-03T01:26:22.918Z,17.00
2022-09-03T01:30:33.553Z,16.80
2022-09-03T01:35:00.980Z,16.80
2022-09-03T01:39:18.071Z,16.70
2022-09-03T01:43:41.019Z,16.70
2022-09-03T01:47:57.233Z,16.50
2022-09-03T01:52:15.354Z,16.40
2022-09-03T01:57:03.172Z,16.50
2022-09-03T02:01:41.877Z,16.40
2022-09-03T02:05:50.742Z,16.40
2022-09-03T02:09:57.488Z,16.40
2022-09-03T02:14:04.874Z,16.40
2022-09-03T02:18:17.952Z,16.40
2022-09-03T02:22:24.941Z,16.30
2022-09-03T02:26:32.419Z,16.20
2022-09-03T02:30:39.187Z,16.20
2022-09-03T02:34:47.141Z,16.20
2022-09-03T02:38:53.859Z,16.10
2022-09-03T02:43:00.894Z,16.10
2022-09-03T02:47:08.524Z,16.10
2022-09-03T02:51:15.250Z,16.00
2022-09-03T02:55:22.024Z,16.10
2022-09-03T02:59:28.769Z,16.00
2022-09-03T03:03:35.527Z,16.00
2022-09-03T03:07:42.325Z,16.00
2022-09-03T03:11:51.319Z,15.90
2022-09-03T03:16:00.084Z,15.90
2022-09-03T03:20:07.365Z,15.90
2022-09-03T03:24:14.596Z,15.90
2022-09-03T03:28:21.380Z,15.80
2022-09-03T03:32:28.096Z,15.70
2022-09-03T03:36:36.007Z,15.80
2022-09-03T03:40:42.829Z,15.70
2022-09-03T03:44:49.607Z,15.70
2022-09-03T03:48:56.489Z,15.60
2022-09-03T03:53:03.239Z,15.40
2022-09-03T03:57:09.969Z,15.30
2022-09-03T04:01:23.202Z,15.00
2022-09-03T04:05:33.627Z,14.90
2022-09-03T04:09:40.625Z,14.90
2022-09-03T04:13:48.625Z,14.80
2022-09-03T04:17:55.587Z,14.70
2022-09-03T04:22:03.168Z,14.70
2022-09-03T04:26:12.795Z,14.50
2022-09-03T04:30:19.935Z,14.50
2022-09-03T04:34:27.784Z,14.30
2022-09-03T04:38:36.584Z,14.20
2022-09-03T04:42:43.573Z,14.10
2022-09-03T04:46:50.356Z,14.10
2022-09-03T04:51:06.267Z,14.10
2022-09-03T04:55:13.585Z,14.30
2022-09-03T04:59:20.384Z,14.40
2022-09-03T05:03:27.432Z,14.40
2022-09-03T05:07:38.854Z,14.50
2022-09-03T05:11:45.551Z,14.60
2022-09-03T05:15:52.299Z,14.60
2022-09-03T05:19:59.052Z,14.70
2022-09-03T05:24:05.942Z,14.70
2022-09-03T05:28:13.314Z,14.70
2022-09-03T05:32:20.052Z,14.80
2022-09-03T05:36:30.274Z,14.90
2022-09-03T05:40:37.007Z,14.90
2022-09-03T05:44:44.104Z,15.00
2022-09-03T05:48:50.929Z,15.10
2022-09-03T05:52:59.231Z,15.20
2022-09-03T05:57:06.060Z,15.30
2022-09-03T06:01:15.398Z,15.40
2022-09-03T06:05:22.147Z,15.60
2022-09-03T06:09:28.879Z,15.70
2022-09-03T06:13:36.832Z,15.70
2022-09-03T06:17:43.782Z,16.50
2022-09-03T06:21:50.625Z,16.00
2022-09-03T06:26:11.875Z,16.10
2022-09-03T06:30:18.583Z,16.20
2022-09-03T06:34:26.842Z,16.40
2022-09-03T06:38:35.908Z,16.50
2022-09-03T06:42:45.778Z,16.70
2022-09-03T06:46:53.517Z,16.90
2022-09-03T06:51:03.028Z,17.10
2022-09-03T06:55:09.849Z,17.20
2022-09-03T06:59:16.599Z,17.20
2022-09-03T07:03:23.333Z,17.40
2022-09-03T07:07:30.056Z,17.60
2022-09-03T07:11:39.151Z,17.60
2022-09-03T07:15:45.939Z,17.80
2022-09-03T07:19:52.784Z,18.40
2022-09-03T07:23:59.964Z,17.90
2022-09-03T07:28:06.966Z,18.10
2022-09-03T07:32:13.764Z,18.30
2022-09-03T07:36:21.074Z,18.60
2022-09-03T07:40:27.759Z,18.90
2022-09-03T07:44:34.982Z,18.90
2022-09-03T07:48:43.338Z,19.10
2022-09-03T07:52:50.317Z,19.30
2022-09-03T07:56:57.579Z,19.60
2022-09-03T08:01:08.847Z,19.80
2022-09-03T08:05:20.619Z,19.90
2022-09-03T08:09:27.368Z,20.20
2022-09-03T08:13:34.533Z,20.40
2022-09-03T08:17:44.359Z,20.60
2022-09-03T08:21:51.272Z,21.00
2022-09-03T08:26:02.008Z,21.20
2022-09-03T08:30:11.582Z,21.60
2022-09-03T08:34:18.817Z,21.60
2022-09-03T08:38:26.081Z,21.70
2022-09-03T08:42:37.841Z,21.80
2022-09-03T08:47:00.995Z,21.90
2022-09-03T08:51:10.273Z,22.10
2022-09-03T08:55:52.464Z,22.50
2022-09-03T09:00:00.983Z,22.90
2022-09-03T09:04:23.329Z,23.20
2022-09-03T09:08:41.990Z,22.50
2022-09-03T09:12:49.589Z,23.50
2022-09-03T09:16:59.557Z,23.80
2022-09-03T09:21:27.386Z,24.20
2022-09-03T09:25:45.513Z,24.60
2022-09-03T09:29:53.724Z,24.90
2022-09-03T09:34:05.103Z,25.20
2022-09-03T09:38:11.865Z,25.10
2022-09-03T09:42:22.212Z,25.30
2022-09-03T09:46:39.563Z,25.50
2022-09-03T09:50:46.398Z,25.60
2022-09-03T09:55:07.125Z,25.80
2022-09-03T09:59:15.360Z,26.00
2022-09-03T10:03:22.168Z,26.20
2022-09-03T10:07:33.035Z,26.40
2022-09-03T10:11:45.077Z,26.60
2022-09-03T10:16:02.602Z,26.70
2022-09-03T10:20:27.658Z,26.90
2022-09-03T10:24:41.008Z,27.30
2022-09-03T10:28:55.916Z,27.30
2022-09-03T10:33:26.618Z,27.30
2022-09-03T10:37:47.466Z,27.40
2022-09-03T10:42:15.246Z,27.70
2022-09-03T10:46:41.589Z,27.80
2022-09-03T10:50:55.411Z,28.10
2022-09-03T10:55:23.189Z,28.10
2022-09-03T10:59:56.398Z,28.20
2022-09-03T11:04:21.006Z,28.50
2022-09-03T11:08:39.473Z,28.60
2022-09-03T11:13:11.391Z,28.50
2022-09-03T11:17:27.823Z,28.60
2022-09-03T11:21:36.937Z,28.70
2022-09-03T11:25:50.527Z,28.90
2022-09-03T11:30:14.936Z,29.00
2022-09-03T11:34:31.738Z,29.30
2022-09-03T11:38:39.552Z,29.20
2022-09-03T11:42:47.208Z,29.00
2022-09-03T11:46:58.869Z,29.20
2022-09-03T11:51:30.197Z,29.30
2022-09-03T11:56:19.251Z,29.50
2022-09-03T12:00:26.713Z,29.70
2022-09-03T12:04:47.711Z,29.60
2022-09-03T12:09:18.664Z,29.60
2022-09-03T12:13:34.559Z,29.80
2022-09-03T12:18:17.201Z,29.70
2022-09-03T12:22:28.875Z,29.70
2022-09-03T12:26:41.701Z,29.90
2022-09-03T12:30:49.111Z,29.90
2022-09-03T12:34:55.935Z,29.60
2022-09-03T12:39:17.993Z,29.70
2022-09-03T12:43:37.575Z,29.90
2022-09-03T12:47:45.377Z,30.30
2022-09-03T12:52:01.825Z,30.20
2022-09-03T12:56:11.653Z,30.50
2022-09-03T13:00:19.801Z,30.80
2022-09-03T13:04:32.638Z,30.60
2022-09-03T13:09:03.074Z,30.60
2022-09-03T13:13:21.459Z,30.70
2022-09-03T13:17:54.282Z,30.60
2022-09-03T13:22:38.747Z,30.30
2022-09-03T13:27:10.411Z,30.30
2022-09-03T13:31:40.955Z,30.50
2022-09-03T13:35:53.743Z,30.60
2022-09-03T13:40:30.485Z,30.50
2022-09-03T13:44:51.093Z,30.40
2022-09-03T13:49:27.974Z,30.60
2022-09-03T13:54:09.398Z,30.60
2022-09-03T13:58:45.672Z,30.30
2022-09-03T14:03:17.376Z,30.30
2022-09-03T14:07:48.033Z,30.20
2022-09-03T14:12:38.621Z,30.00
2022-09-03T14:16:50.779Z,30.30
2022-09-03T14:21:16.216Z,30.30
2022-09-03T14:25:26.113Z,30.40
2022-09-03T14:29:34.768Z,29.90
2022-09-03T14:33:59.707Z,29.70
2022-09-03T14:38:40.917Z,29.50
2022-09-03T14:43:02.492Z,29.20
2022-09-03T14:47:33.545Z,29.00
2022-09-03T14:52:07.719Z,28.90
2022-09-03T14:56:24.155Z,28.30
2022-09-03T15:00:43.548Z,28.10
2022-09-03T15:05:12.268Z,28.10
2022-09-03T15:09:27.535Z,27.90
2022-09-03T15:13:42.869Z,27.50
2022-09-03T15:18:15.434Z,27.20
2022-09-03T15:22:38.066Z,27.00
2022-09-03T15:27:02.302Z,26.90
2022-09-03T15:31:50.026Z,27.10
2022-09-03T15:36:26.671Z,27.20
2022-09-03T15:40:54.301Z,27.00
2022-09-03T15:45:16.553Z,27.00
2022-09-03T15:49:26.179Z,26.90
2022-09-03T15:53:45.958Z,26.90
2022-09-03T15:58:08.370Z,26.90
2022-09-03T16:02:59.999Z,27.00
2022-09-03T16:07:26.361Z,26.90
2022-09-03T16:11:56.659Z,26.80
2022-09-03T16:16:09.614Z,26.80
2022-09-03T16:20:25.596Z,26.80
2022-09-03T16:24:51.039Z,26.80
2022-09-03T16:29:07.875Z,26.70
2022-09-03T16:33:45.841Z,26.70
2022-09-03T16:38:05.968Z,26.60
2022-09-03T16:42:25.763Z,26.50
2022-09-03T16:46:47.115Z,26.40
2022-09-03T16:51:26.398Z,26.30
2022-09-03T16:55:36.140Z,26.20
2022-09-03T17:00:08.029Z,26.20
2022-09-03T17:04:36.455Z,26.00
2022-09-03T17:09:22.320Z,25.90
2022-09-03T17:13:53.650Z,25.70
2022-09-03T17:18:09.616Z,25.60
2022-09-03T17:22:32.799Z,25.60
2022-09-03T17:27:05.262Z,25.60
2022-09-03T17:31:30.639Z,25.50
2022-09-03T17:35:42.135Z,25.30
2022-09-03T17:40:15.731Z,25.30
2022-09-03T17:44:33.368Z,25.20
2022-09-03T17:48:46.430Z,25.00
2022-09-03T17:52:59.808Z,24.60
2022-09-03T17:57:21.776Z,24.50
2022-09-03T18:01:33.438Z,24.30
2022-09-03T18:05:46.149Z,24.10
2022-09-03T18:10:10.196Z,23.90
2022-09-03T18:14:26.213Z,23.80
2022-09-03T18:18:36.959Z,23.70
2022-09-03T18:23:30.279Z,23.60
2022-09-03T18:28:01.010Z,23.30
2022-09-03T18:32:26.566Z,23.00
2022-09-03T18:36:52.076Z,22.80
2022-09-03T18:41:43.310Z,22.60
2022-09-03T18:47:47.479Z,22.50
2022-09-03T18:51:59.371Z,22.20
2022-09-03T18:56:31.400Z,22.10
2022-09-03T19:01:05.675Z,21.90
2022-09-03T19:05:38.081Z,21.80
2022-09-03T19:10:17.809Z,21.70
2022-09-03T19:15:14.963Z,21.60
2022-09-03T19:20:22.164Z,21.50
2022-09-03T19:24:49.647Z,21.40
2022-09-03T19:29:21.990Z,21.40
2022-09-03T19:34:24.092Z,21.30
2022-09-03T19:38:49.447Z,21.20
2022-09-03T19:43:30.819Z,21.00
2022-09-03T19:48:02.002Z,21.00
2022-09-03T19:52:51.500Z,20.80
2022-09-03T19:57:17.559Z,20.70
2022-09-03T20:01:48.525Z,20.50
2022-09-03T20:06:13.897Z,20.30
2022-09-03T20:10:25.049Z,20.20
2022-09-03T20:14:35.286Z,20.10
2022-09-03T20:19:01.764Z,19.90
2022-09-03T20:23:21.065Z,19.80
2022-09-03T20:27:31.894Z,19.60
2022-09-03T20:31:58.980Z,19.50
2022-09-03T20:36:13.907Z,19.50
2022-09-03T20:40:28.769Z,19.50
2022-09-03T20:45:05.806Z,19.60
2022-09-03T20:49:31.794Z,19.80
2022-09-03T20:54:09.483Z,20.00
2022-09-03T20:58:23.956Z,20.10
2022-09-03T21:02:55.512Z,20.20
2022-09-03T21:07:29.363Z,20.40
2022-09-03T21:12:03.256Z,20.50
2022-09-03T21:16:34.991Z,20.50
2022-09-03T21:20:51.614Z,20.50
2022-09-03T21:25:00.655Z,20.60
2022-09-03T21:29:23.372Z,20.50
2022-09-03T21:33:34.913Z,20.60
2022-09-03T21:37:59.843Z,20.60
2022-09-03T21:42:13.375Z,20.60
2022-09-03T21:46:34.866Z,20.60
2022-09-03T21:50:54.686Z,20.60
2022-09-03T21:55:03.374Z,20.60
2022-09-03T21:59:31.769Z,20.50
2022-09-03T22:03:41.347Z,20.50
2022-09-03T22:08:23.314Z,20.50
2022-09-03T22:12:41.113Z,20.40
2022-09-03T22:17:02.840Z,20.40
2022-09-03T22:21:13.153Z,20.30
2022-09-03T22:25:24.876Z,20.20
2022-09-03T22:29:40.434Z,20.20
2022-09-03T22:33:59.176Z,20.10
2022-09-03T22:38:17.905Z,19.90
2022-09-03T22:42:34.482Z,19.80
2022-09-03T22:47:15.432Z,19.70
2022-09-03T22:51:22.243Z,19.70
2022-09-03T22:55:29.395Z,19.70
2022-09-03T22:59:42.180Z,19.70
2022-09-03T23:03:57.102Z,19.70
2022-09-03T23:08:09.502Z,19.60
2022-09-03T23:12:33.631Z,19.70
2022-09-03T23:16:51.076Z,19.60
2022-09-03T23:21:23.682Z,19.50
2022-09-03T23:25:36.083Z,19.60
2022-09-03T23:29:46.187Z,19.50
2022-09-03T23:33:54.729Z,19.50
2022-09-03T23:38:13.932Z,19.30
2022-09-03T23:42:34.526Z,19.20
2022-09-03T23:47:07.228Z,19.20
2022-09-03T23:51:42.049Z,19.10
2022-09-03T23:56:03.486Z,19.00
